maandag 16 juli 2018 | Home | Bestenlijsten | Bestenlijsten NL | Calculator eindtijd | Nieuws | Uitslagen | Videos | Wedstrijden | VZA Ranglijsten | Weer |
 
 
Recent nieuws meer nieuws
12-07: De gehoorzame volgzame hardloper
26-06: Veranderingen stratenloopcircuit
13-06: De levensduur van hardloopwedstrijden
08-06: De laatste Lepraloop!
28-05: Organiseren met de nieuwe privacywet
27-05: Erwin Adan en Anjolie Engels sterksten in Halve van Renesse
Wedstrijdagenda meer wedstrijden
di 17-07: 3e Zomerloop Retranchement
wo 18-07: 39e Stratenloop Westkapelle
di 24-07: 4e Zomerloop Groede
wo 25-07: 35e Bokaalloop Burgh-Haamstede
vr 27-07: 45e Noormannenloop Westkapelle
za 28-07: Memorial Rasschaert Ninove
di 31-07: 5e Zomerloop Nieuwvliet
wo 01-08: 81e Boulevardloop Vlissingen
vr 03-08: 34e Strandloop Ouddorp
vr 03-08: Track Meeting Utrecht
za 04-08: Meeting voor Mon Kessel-Lo
di 07-08: 6e Zomerloop Zuidzande
za 11-08: 15 van Wolphaartsdijk
vr 17-08: 4e Goes on Track
Recente uitslagen meer uitslagen
wo 11-07: 8e Sportvissersloop Yerseke
di 10-07: 2e Zomerloop Cadzand-Bad
za 07-07: Ronde van Sint Kruis
wo 04-07: 29e Stratenloop Zoutelande
di 03-07: 1e Zomerloop IJzendijke
vr 15-06: 10e Lepraloop Oostkapelle
vr 08-06: 10e Griffioenloop Middelburg (149)
za 02-06: Ladiesrun Goes
vr 01-06: 3e Gaperloop Gapinge (199)
 
Zoek tenminste met 3 tekens van wedstrijd, datum, plaats of atleet
4e Zomerloop
Zuidzande, dinsdag 4 augustus 2015 - Organisatie: Wielingen
10 km >> Zeeuws record staat met 29.02 min. vanaf 01-04-1992 op naam van John Vermeule <<
PltsNaam
Tijdkm/umin/km
1  Tim Pleijte (PR 30.12)Zoutelande34.37Mse   17.333  3:28
2  Mark Verhage (PR 33.59)Zaamslag35.09Mse   17.070  3:31
3  Theo Rabout (PR 32.38)Aardenburg36.11M40   16.582  3:37
4  Jurgen SoetaertDeerlijk36.18Mse   16.529  3:38
5  Maurice van VeldhoovenDe Lier36.31Mse   16.431  3:39
6  Arthur CampsVoorburg37.09Mse   16.151  3:43
7  Sander d'Hont (PR 34.33)Kuitaart37.15Mse   16.107  3:44
8  Jooost van der ZwetRoelofarendsveen38.06Mse   15.748  3:49
9  Peter Slits (PR 37.01)Sluis38.12M45   15.707  3:49
10  Endy Slock (PR)Axel38.18M40   15.666  3:50
11  Bart CornelisSente38.28Mse   15.598  3:51
12  Karl-Peter BoesharHueffler-Wahnwegen39.17Mse   15.274  3:56
13  Robert Vroon (PR)Breskens39.27M45   15.209  3:57
14  Adriaan Wieles (PR)Terneuzen39.36M45   15.152  3:58
15  Francois van de Broecke (PR)Breskens39.41Mse   15.120  3:58
16  Wouter GeorgesEvergem40.56Mse   14.658  4:06
17  Justin VandenabeeleMaldegem42.03Mse   14.269  4:12
18  Peter WannerLeisenheim42.15Mse   14.201  4:14
19  Bernd PriorGross-Zimmern42.21Mse   14.168  4:14
20  David Pieters (debuut)Oostburg42.27Mse   14.134  4:15
21  Edwin Huigh (debuut)Oostburg42.37Mse   14.079  4:16
22  Bart TimmermanLovendegem42.42Mse   14.052  4:16
23  Wiken HoveAndel43.30Mse   13.793  4:21
24  John MansveldersDeurne43.52Mse   13.678  4:23
25  Bas Daalmans (PR)Goes44.18Mse   13.544  4:26
26  Wim WillemsBassevelde44.24Mse   13.514  4:26
27  Myrthe Faro (PR)Breskens44.54Vse   13.363  4:29
28  Patrick van Morrelgem (PR 43.51)Sluis45.05Mse   13.309  4:31
29  Leon van Bavinchoven (PR 44.17)Terneuzen45.06Mse   13.304  4:31
30  Simon de Feyter (debuut)Schoondijke45.08M50   13.294  4:31
31  Patrick de Sutter (debuut)Oostburg45.33Mse   13.172  4:33
32  Ronny Versluys (PR 45.02)Zuidzande45.35Mse   13.163  4:34
33  Ebe Blaauw (PR)Terneuzen45.38M60   13.148  4:34
34  Carlo Nobus (debuut)Eede47.27Mse   12.645  4:45
35  Paul HaertjesnBoekhoute47.32Mse   12.623  4:45
36  Renate de Reus (PR 42.43)Terneuzen47.35Vse   12.609  4:46
37  Astrid Verhage (PR 43.56)Zuiddorpe47.45Vse   12.565  4:47
38  Nadia Bleyenberg (debuut)Nieuw-Namen47.57Vse   12.513  4:48
39  Jaap van der Veen (PR 42.18)Terneuzen47.58M45   12.509  4:48
40  Fred Vermeire (PR 47.50)Breskens48.04M50   12.483  4:48
41  Hans ArdeelWaterland-Oudeman48.28Mse   12.380  4:51
42  Marjan Verhage (debuut)Axel48.30Vse   12.371  4:51
43  Coen RijkersVorstenbosch49.01Mse   12.241  4:54
44  Dicky KeukeleireBrugge49.02Mse   12.237  4:54
45  Jan Engelaar (PR 49.17)Oostburg49.22Mse   12.154  4:56
46  Dennis Kaashoek (debuut)Oostburg49.30Mse   12.121  4:57
47  Jolanda UbelsStadskanaal50.30Vse   11.881  5:03
48  Ronny SavelsWestkapelle (B)51.31Mse   11.647  5:09
49  Ivan VerbekeSint Laureins51.57Mse   11.550  5:12
50  Anniek de Rijck (PR)Sint Jansteen52.14Vse   11.487  5:13
51  Josa van der Vliet (PR 50.01)Terneuzen52.54Vse   11.342  5:17
52  Izaak LuteijnDen Haag53.10Mse   11.285  5:19
53  Jorien Boidin (debuut)Oostburg53.14Vse   11.271  5:19
54  Hadewych GeorgesWaarschoot54.48Vse   10.949  5:29
55  Steven BoelensSint Margriete55.12Mse   10.870  5:31
56  Jessica de Vet (debuut)Axel55.40Vse   10.778  5:34
57  Fermin van de WoestijnWatervliet56.02Mse   10.708  5:36
58  Yvonne FrommAndel56.56Vse   10.539  5:42
59  Jos SiereveldBennekom57.47Mse   10.384  5:47
60  Ronny Scherbeijn (debuut)Cadzand58.04Mse   10.333  5:48
61  Jacky Dooms (PR 59.50)Terneuzen1.03.46Mse   9.409  6:23
62  Paul Huitema (debuut)Terneuzen1.03.49Mse   9.402  6:23
63  Johnny Dooms (PR 44.55)Terneuzen1.03.52M60   9.395  6:23
64  Tianda Donker Curtius (debuut)Schoondijke16.01.00Vse     6:06
65  Jennifer GaneshNijmegen50.01.06Vse     0:07
Mannen: 51 (78.46%) => M40=2 - M45=4 - M50=2 - M60=2 - Mse=41
Vrouwen: 14 (21.54%) => Vse=14

Overzicht Top3, winnares en aantal deelnemers in eerdere jaren

JaarWinnaarTijd2eTijd 3eTijdWinnaresTijd#
2017Mark Verhage33:59Bert van de Velde34:07Sebastien Mahia35:37Frederique Versluijs39:4541
2015Tim Pleijte34:37Mark Verhage35:09Theo Rabout36:11Myrthe Faro44:5465

6.9 km
PltsNaam
Tijdkm/umin/km
1  Joos PauwelKleit25.46Mse   16.067  3:44
2  Bert Verbeke?26.15Mse   15.771  3:48
3  Tim BuysseAssenede27.02Mse   15.314  3:55
4  Matti BuysseStekene27.07Mse   15.267  3:56
5  Jimmy BlaakmanSchoondijke28.36Mse   14.476  4:09
6  Johan de FeijterOostburg30.10Mse   13.724  4:22
7  Jimmy VenemaHelmond30.45Mse   13.463  4:27
8  Leslie van de VijverKoewacht31.19Vse   13.220  4:32
9  Pol van de VijverHulst31.19Mse   13.220  4:32
10  Jurgen de JongeOostburg31.28Mse   13.157  4:34
11  Amor MaertensBreskens31.49Mse   13.012  4:37
12  Michel de MeijerCadzand33.07Mse   12.501  4:48
13  Christian NoeskeZuidzande33.07Mse   12.501  4:48
14  Jan Piet FlikweertOostburg33.10M50   12.482  4:48
15  Piet de VisserOostburg33.11Mse   12.476  4:49
16  Eric van NevelKoolkerke33.40Mse   12.297  4:53
17  Ilona DielemanNieuwvliet33.57Vse   12.194  4:55
18  Claartje van der GrintVoorburg34.01Vse   12.171  4:56
19  Steven SlockAxel34.07Mse   12.135  4:57
20  Jacqueline MaasZuidzande34.20V45   12.058  4:59
21  Tonny van MulkenBreskens35.07M60   11.789  5:05
22  Joop de RijckSint Jansteen36.11Mse   11.442  5:15
23  Rik van SchuurOostburg37.06M65   11.159  5:23
24  Koen van de SompeleWestkapelle37.20Mse   11.089  5:25
25  Stephanie van der VeenTerneuzen37.31Vse   11.035  5:26
26  Leo DekkerZuidzande37.42Mse   10.981  5:28
27  Marjan MistiaenZuidzande37.50Vse   10.943  5:29
28  Natalie DuboisAmsterdam38.07Vse   10.861  5:31
29  Ignace van NevelOostkamp38.15Mse   10.824  5:33
30  Johan de WispelaereSint Kruis39.26Mse   10.499  5:43
31  Bianca GrieserHagen- Luxembourg39.32Vse   10.472  5:44
32  Jacqueline d'HontKuitaart39.41Vse   10.433  5:45
33  Nico VerheulOostburg40.27M60   10.235  5:52
34  Sebastian FermontHulst41.05Mse   10.077  5:57
35  Dianne BrugmansZijtaart41.25Vse   9.996  6:00
36  Luc VerhulstEeklo41.46Mse   9.912  6:03
37  Dorien VasseurOostburg41.49Vse   9.900  6:04
38  Ineke van MorrelgemSluis41.50Vse   9.896  6:04
39  Evelien DaelmanWaterlandkerkje43.23Vse   9.543  6:17
40  Daisy van de VeldeOostburg43.25Vse   9.536  6:18
41  Lisette GroosmanSluis43.42Vse   9.474  6:20
42  Bianca FossenBoekhoute50.59Vse   8.120  7:23
Mannen: 26 (61.9%) => M50=1 - M60=2 - M65=1 - Mse=22
Vrouwen: 16 (38.1%) => V45=1 - Vse=15

Snelheid en tempo zijn berekend op de vermelde afstand. Bij een onjuiste afstand wijken deze uiteraard af!

Fouten melden via info@atletiekzeeland.nl Categorie fout? Mail dan geboortedatum. (geldt alleen voor Zeeuwen)

De server had 0.969 seconden nodig om deze lijst met 107 prestaties samen te stellen.

Terug naar boven

Vorige uitslagen
DatumWedstrijdPlaatsVereniging Hits
10-07-2018 2e ZomerloopCadzand-BadWielingen0
03-07-2018 1e ZomerloopIJzendijkeWielingen0
08-08-2017 5e ZomerloopNieuwvlietWielingen0
25-07-2017 3e ZomerloopRetranchementWielingen0
01-08-2017 4e ZomerloopGroedeWielingen0
15-08-2017 6e ZomerloopZuidzandeWielingen0
18-07-2017 2e ZomerloopCadzandWielingen0
14-07-2015 1e ZomerloopRetranchementWielingen441
21-07-2015 2e ZomerloopGroedeWielingen654
11-08-2015 5e ZomerloopCadzandWielingen689
28-07-2015 3e ZomerloopNieuwvlietWielingen506
09-07-2013 ZomerloopRetranchementWielingen1281
10-07-2012 2e ZomerloopGroedeWielingen1245
03-07-2012 ZomerloopRetranchementWielingen1398
24-07-2012 4e ZomerloopZuidzandeWielingen1244
17-07-2012 3e ZomerloopNieuwvlietWielingen1365
05-07-2011 ZomerloopRetranchementWielingen1258
26-07-2011 4e ZomerloopZuidzandeWielingen1823
21-07-2009 3e ZomerloopNieuwvlietWielingen1741
04-08-2009 5e ZomerloopCadzand-BadWielingen1858
07-07-2009 ZomerloopRetranchementWielingen1237
14-07-2009 2e ZomerloopGroedeWielingen1474
28-07-2009 4e ZomerloopZuidzandeWielingen1737
08-07-2008 ZomerloopRetranchementWielingen1497
15-07-2008 2e ZomerloopGroedeWielingen1412
29-07-2008 4e ZomerloopZuidzandeWielingen1440
22-07-2008 3e ZomerloopNieuwvlietWielingen1508

 
Laatste reactie:
Jan Roose: De Levensduur Van Hardloopweds..
Recente Zeeuwse prestaties meer prestaties
14-07: Guldensporenmeeting Kortrijk (2)
1500 m Chris de Smit (PR 4.29.70)4.38.26  M35
800 m Wouter Verstraate (PR 1.58.48)1.58.99  Mse
13-07: Track Meeting Utrecht (2)
800 m Viktor Beelen (PR 2.05.32)2.07.80  Mse
100 m Mariska Bun (PR 12.11)12.42  Vse
11-07: Gouden 3000m Ertvelde (2)
800 m Wouter Verstraate (PR 1.58.48)2.00.96  Mse
400 m Jacques Zaman (PR 56.4)60.28  M55
07-07: Arena Games Hilversum (3)
07-07: Chaamloop (2)
05-07: Track Meeting Rotterdam (3)
01-07: Internationaal Antwerps Atletiekgala Merksem (5)
30-06: Brussels Grand Prix (1)
24-06: 35e Halve Marathon Roosendaal (104)
24-06: NK baan Senioren Utrecht (10)
24-06: Grote Prijs Lokeren (4)
23-06: Marathon Rond Sneek en Meer (6)
21-06: 19e Molenloop Stellendam (4)
20-06: Avondbaanwedstrijd Vlissingen (25)
17-06: Dwars door Geel (1)
16-06: 31e Bavoloop Rijsbergen (9)
16-06: NK A/B-junioren Emmeloord (7)
14-06: Track Meeting Dordrecht (2)
13-06: Hardloopgala Gilze (9)
12-06: Avondbaanwedstrijd Terneuzen (24)
09-06: 36e Nationale Lenteloop Papendrecht (2)
09-06: Baanwedstrijd Zierikzee (14)
09-06: 47e Gouden Spike Leiden (1)
08-06: Nijmegen Global Athletics (3)
06-06: Pagnevaartloop Oudenbosch (4)
03-06: 8e Brabantse Wal Marathon Bergen op Zoom (43)
03-06: NK Masters Gouda (1)
02-06: Putbosmeeting Oordegem (10)
02-06: Van Goghloop Zundert (3)
01-06: Track Meeting Utrecht (5)
27-05: 28e Leiden Marathon (25)
27-05: Halve Marathon Hoogvliet (1)
26-05: 9e IFAM Outdoor Oordegem (5)
21-05: Memorial Vertommen-Cuddy Duffel (9)
21-05: Pinksterwedstrijd Hulst (13)
19-05: 7e Bokkenloop Sinaai (5)
19-05: Ter Specke Bokaal Lisse (3)
18-05: Track Meeting Wageningen (2)
Atletiek Zeeland © 2018